sensor_id;sensor_type;location;lat;lon;timestamp;temperature;humidity
68215;DHT22;55036;52.138;5.236;2023-03-01T00:01:15;1.30;69.20
68215;DHT22;55036;52.138;5.236;2023-03-01T00:03:43;1.30;69.10
68215;DHT22;55036;52.138;5.236;2023-03-01T00:06:10;1.30;69.10
68215;DHT22;55036;52.138;5.236;2023-03-01T00:08:38;1.20;69.30
68215;DHT22;55036;52.138;5.236;2023-03-01T00:11:14;1.20;70.50
68215;DHT22;55036;52.138;5.236;2023-03-01T00:13:41;1.20;69.90
68215;DHT22;55036;52.138;5.236;2023-03-01T00:16:12;1.20;69.60
68215;DHT22;55036;52.138;5.236;2023-03-01T00:18:39;1.20;70.00
68215;DHT22;55036;52.138;5.236;2023-03-01T00:21:06;1.20;70.30
68215;DHT22;55036;52.138;5.236;2023-03-01T00:23:37;1.20;70.10
68215;DHT22;55036;52.138;5.236;2023-03-01T00:26:12;1.10;70.30
68215;DHT22;55036;52.138;5.236;2023-03-01T00:28:39;1.10;70.00
68215;DHT22;55036;52.138;5.236;2023-03-01T00:31:18;1.10;69.90
68215;DHT22;55036;52.138;5.236;2023-03-01T00:33:45;1.10;69.90
68215;DHT22;55036;52.138;5.236;2023-03-01T00:36:13;1.00;69.80
68215;DHT22;55036;52.138;5.236;2023-03-01T00:38:44;1.00;70.20
68215;DHT22;55036;52.138;5.236;2023-03-01T00:41:14;1.00;70.40
68215;DHT22;55036;52.138;5.236;2023-03-01T00:43:41;1.00;70.30
68215;DHT22;55036;52.138;5.236;2023-03-01T00:46:10;0.90;70.20
68215;DHT22;55036;52.138;5.236;2023-03-01T00:48:37;0.90;70.30
68215;DHT22;55036;52.138;5.236;2023-03-01T00:51:39;0.90;70.40
68215;DHT22;55036;52.138;5.236;2023-03-01T00:54:00;0.90;70.60
68215;DHT22;55036;52.138;5.236;2023-03-01T00:56:28;0.90;70.60
68215;DHT22;55036;52.138;5.236;2023-03-01T00:58:56;0.90;70.60
68215;DHT22;55036;52.138;5.236;2023-03-01T01:01:26;0.80;70.70
68215;DHT22;55036;52.138;5.236;2023-03-01T01:04:08;0.80;70.40
68215;DHT22;55036;52.138;5.236;2023-03-01T01:06:38;0.80;70.20
68215;DHT22;55036;52.138;5.236;2023-03-01T01:09:06;0.80;70.50
68215;DHT22;55036;52.138;5.236;2023-03-01T01:11:34;0.80;70.80
68215;DHT22;55036;52.138;5.236;2023-03-01T01:14:04;0.80;70.60
68215;DHT22;55036;52.138;5.236;2023-03-01T01:16:31;0.70;70.60
68215;DHT22;55036;52.138;5.236;2023-03-01T01:18:58;0.70;70.70
68215;DHT22;55036;52.138;5.236;2023-03-01T01:21:25;0.70;71.10
68215;DHT22;55036;52.138;5.236;2023-03-01T01:23:53;0.70;71.30
68215;DHT22;55036;52.138;5.236;2023-03-01T01:26:26;0.70;71.30
68215;DHT22;55036;52.138;5.236;2023-03-01T01:28:53;0.70;71.30
68215;DHT22;55036;52.138;5.236;2023-03-01T01:31:21;0.70;71.50
68215;DHT22;55036;52.138;5.236;2023-03-01T01:33:51;0.70;71.60
68215;DHT22;55036;52.138;5.236;2023-03-01T01:36:18;0.60;71.20
68215;DHT22;55036;52.138;5.236;2023-03-01T01:38:45;0.60;71.20
68215;DHT22;55036;52.138;5.236;2023-03-01T01:41:13;0.60;71.30
68215;DHT22;55036;52.138;5.236;2023-03-01T01:43:45;0.60;71.20
68215;DHT22;55036;52.138;5.236;2023-03-01T01:48:53;0.60;72.00
68215;DHT22;55036;52.138;5.236;2023-03-01T01:51:29;0.50;72.00
68215;DHT22;55036;52.138;5.236;2023-03-01T01:54:27;0.50;72.30
68215;DHT22;55036;52.138;5.236;2023-03-01T01:57:00;0.50;72.30
68215;DHT22;55036;52.138;5.236;2023-03-01T01:59:29;0.50;71.90
68215;DHT22;55036;52.138;5.236;2023-03-01T02:01:59;0.40;71.90
68215;DHT22;55036;52.138;5.236;2023-03-01T02:04:28;0.40;71.90
68215;DHT22;55036;52.138;5.236;2023-03-01T02:07:02;0.40;72.10
68215;DHT22;55036;52.138;5.236;2023-03-01T02:09:31;0.30;71.90
68215;DHT22;55036;52.138;5.236;2023-03-01T02:11:58;0.30;72.20
68215;DHT22;55036;52.138;5.236;2023-03-01T02:14:25;0.30;71.90
68215;DHT22;55036;52.138;5.236;2023-03-01T02:16:52;0.30;71.90
68215;DHT22;55036;52.138;5.236;2023-03-01T02:19:31;0.30;72.10
68215;DHT22;55036;52.138;5.236;2023-03-01T02:24:40;0.30;72.20
68215;DHT22;55036;52.138;5.236;2023-03-01T02:27:15;0.20;72.20
68215;DHT22;55036;52.138;5.236;2023-03-01T02:29:43;0.20;72.40
68215;DHT22;55036;52.138;5.236;2023-03-01T02:32:12;0.20;72.20
68215;DHT22;55036;52.138;5.236;2023-03-01T02:34:39;0.20;72.40
68215;DHT22;55036;52.138;5.236;2023-03-01T02:37:14;0.10;72.70
68215;DHT22;55036;52.138;5.236;2023-03-01T02:39:48;0.10;72.80
68215;DHT22;55036;52.138;5.236;2023-03-01T02:42:28;0.10;72.50
68215;DHT22;55036;52.138;5.236;2023-03-01T02:44:56;0.10;72.60
68215;DHT22;55036;52.138;5.236;2023-03-01T02:47:23;0.10;72.50
68215;DHT22;55036;52.138;5.236;2023-03-01T02:49:50;0.00;73.30
68215;DHT22;55036;52.138;5.236;2023-03-01T02:55:00;0.00;72.90
68215;DHT22;55036;52.138;5.236;2023-03-01T02:57:29;0.00;72.70
68215;DHT22;55036;52.138;5.236;2023-03-01T03:00:00;0.00;72.80
68215;DHT22;55036;52.138;5.236;2023-03-01T03:02:34;0.00;73.20
68215;DHT22;55036;52.138;5.236;2023-03-01T03:05:28;0.00;73.30
68215;DHT22;55036;52.138;5.236;2023-03-01T03:07:56;0.00;72.80
68215;DHT22;55036;52.138;5.236;2023-03-01T03:10:27;0.00;73.10
68215;DHT22;55036;52.138;5.236;2023-03-01T03:13:09;0.00;73.50
68215;DHT22;55036;52.138;5.236;2023-03-01T03:15:36;0.00;73.40
68215;DHT22;55036;52.138;5.236;2023-03-01T03:18:07;-0.10;73.10
68215;DHT22;55036;52.138;5.236;2023-03-01T03:20:34;-0.10;73.10
68215;DHT22;55036;52.138;5.236;2023-03-01T03:23:01;-0.10;73.70
68215;DHT22;55036;52.138;5.236;2023-03-01T03:25:29;-0.10;73.40
68215;DHT22;55036;52.138;5.236;2023-03-01T03:27:56;-0.10;73.30
68215;DHT22;55036;52.138;5.236;2023-03-01T03:30:30;-0.10;73.00
68215;DHT22;55036;52.138;5.236;2023-03-01T03:32:58;-0.10;73.00
68215;DHT22;55036;52.138;5.236;2023-03-01T03:35:30;-0.20;72.90
68215;DHT22;55036;52.138;5.236;2023-03-01T03:37:59;-0.20;73.00
68215;DHT22;55036;52.138;5.236;2023-03-01T03:40:37;-0.20;73.40
68215;DHT22;55036;52.138;5.236;2023-03-01T03:43:06;-0.20;73.70
68215;DHT22;55036;52.138;5.236;2023-03-01T03:45:33;-0.20;74.00
68215;DHT22;55036;52.138;5.236;2023-03-01T03:48:03;-0.20;73.70
68215;DHT22;55036;52.138;5.236;2023-03-01T03:50:30;-0.20;73.60
68215;DHT22;55036;52.138;5.236;2023-03-01T03:52:59;-0.20;73.50
68215;DHT22;55036;52.138;5.236;2023-03-01T03:55:26;-0.20;73.40
68215;DHT22;55036;52.138;5.236;2023-03-01T03:57:58;-0.20;73.60
68215;DHT22;55036;52.138;5.236;2023-03-01T04:00:28;-0.30;73.60
68215;DHT22;55036;52.138;5.236;2023-03-01T04:02:55;-0.30;73.50
68215;DHT22;55036;52.138;5.236;2023-03-01T04:05:23;-0.30;73.50
68215;DHT22;55036;52.138;5.236;2023-03-01T04:07:49;-0.30;73.50
68215;DHT22;55036;52.138;5.236;2023-03-01T04:10:33;-0.30;73.40
68215;DHT22;55036;52.138;5.236;2023-03-01T04:13:01;-0.30;73.50
68215;DHT22;55036;52.138;5.236;2023-03-01T04:15:28;-0.40;73.00
68215;DHT22;55036;52.138;5.236;2023-03-01T04:17:55;-0.50;73.50
68215;DHT22;55036;52.138;5.236;2023-03-01T04:20:28;-0.50;73.90
68215;DHT22;55036;52.138;5.236;2023-03-01T04:25:48;-0.50;74.10
68215;DHT22;55036;52.138;5.236;2023-03-01T04:28:39;-0.40;74.30
68215;DHT22;55036;52.138;5.236;2023-03-01T04:31:15;-0.40;74.40
68215;DHT22;55036;52.138;5.236;2023-03-01T04:33:52;-0.50;74.00
68215;DHT22;55036;52.138;5.236;2023-03-01T04:36:25;-0.50;73.90
68215;DHT22;55036;52.138;5.236;2023-03-01T04:38:52;-0.50;74.00
68215;DHT22;55036;52.138;5.236;2023-03-01T04:41:21;-0.50;74.00
68215;DHT22;55036;52.138;5.236;2023-03-01T04:43:48;-0.50;74.20
68215;DHT22;55036;52.138;5.236;2023-03-01T04:46:17;-0.50;74.20
68215;DHT22;55036;52.138;5.236;2023-03-01T04:48:45;-0.50;74.00
68215;DHT22;55036;52.138;5.236;2023-03-01T04:51:11;-0.60;73.90
68215;DHT22;55036;52.138;5.236;2023-03-01T04:53:43;-0.60;73.80
68215;DHT22;55036;52.138;5.236;2023-03-01T04:56:10;-0.60;73.80
68215;DHT22;55036;52.138;5.236;2023-03-01T04:58:37;-0.60;73.80
68215;DHT22;55036;52.138;5.236;2023-03-01T05:01:11;-0.60;74.00
68215;DHT22;55036;52.138;5.236;2023-03-01T05:03:50;-0.70;73.80
68215;DHT22;55036;52.138;5.236;2023-03-01T05:06:18;-0.80;73.70
68215;DHT22;55036;52.138;5.236;2023-03-01T05:08:45;-0.80;73.90
68215;DHT22;55036;52.138;5.236;2023-03-01T05:11:12;-0.80;73.90
68215;DHT22;55036;52.138;5.236;2023-03-01T05:13:39;-0.80;74.10
68215;DHT22;55036;52.138;5.236;2023-03-01T05:16:08;-0.80;73.90
68215;DHT22;55036;52.138;5.236;2023-03-01T05:18:39;-0.80;73.90
68215;DHT22;55036;52.138;5.236;2023-03-01T05:21:11;-0.80;73.90
68215;DHT22;55036;52.138;5.236;2023-03-01T05:23:38;-0.80;73.90
68215;DHT22;55036;52.138;5.236;2023-03-01T05:26:05;-0.80;73.90
68215;DHT22;55036;52.138;5.236;2023-03-01T05:28:36;-0.90;74.00
68215;DHT22;55036;52.138;5.236;2023-03-01T05:31:04;-0.90;73.90
68215;DHT22;55036;52.138;5.236;2023-03-01T05:33:40;-0.90;73.90
68215;DHT22;55036;52.138;5.236;2023-03-01T05:36:07;-0.90;74.00
68215;DHT22;55036;52.138;5.236;2023-03-01T05:38:36;-0.90;74.20
68215;DHT22;55036;52.138;5.236;2023-03-01T05:41:03;-0.90;74.60
68215;DHT22;55036;52.138;5.236;2023-03-01T05:43:31;-0.90;74.60
68215;DHT22;55036;52.138;5.236;2023-03-01T05:46:01;-0.90;74.30
68215;DHT22;55036;52.138;5.236;2023-03-01T05:48:28;-0.90;74.30
68215;DHT22;55036;52.138;5.236;2023-03-01T05:50:54;-1.00;74.30
68215;DHT22;55036;52.138;5.236;2023-03-01T05:53:21;-1.00;74.20
68215;DHT22;55036;52.138;5.236;2023-03-01T05:55:48;-1.00;74.00
68215;DHT22;55036;52.138;5.236;2023-03-01T05:58:18;-1.00;74.30
68215;DHT22;55036;52.138;5.236;2023-03-01T06:00:47;-1.00;74.50
68215;DHT22;55036;52.138;5.236;2023-03-01T06:03:15;-1.00;74.50
68215;DHT22;55036;52.138;5.236;2023-03-01T06:05:42;-1.00;74.40
68215;DHT22;55036;52.138;5.236;2023-03-01T06:08:11;-1.00;74.40
68215;DHT22;55036;52.138;5.236;2023-03-01T06:10:38;-1.00;74.30
68215;DHT22;55036;52.138;5.236;2023-03-01T06:13:05;-1.10;74.30
68215;DHT22;55036;52.138;5.236;2023-03-01T06:15:32;-1.00;74.50
68215;DHT22;55036;52.138;5.236;2023-03-01T06:17:58;-1.00;74.70
68215;DHT22;55036;52.138;5.236;2023-03-01T06:20:27;-1.00;74.90
68215;DHT22;55036;52.138;5.236;2023-03-01T06:22:54;-1.00;74.70
68215;DHT22;55036;52.138;5.236;2023-03-01T06:25:22;-1.00;74.70
68215;DHT22;55036;52.138;5.236;2023-03-01T06:27:49;-1.00;74.50
68215;DHT22;55036;52.138;5.236;2023-03-01T06:30:18;-1.00;74.50
68215;DHT22;55036;52.138;5.236;2023-03-01T06:32:45;-1.00;74.60
68215;DHT22;55036;52.138;5.236;2023-03-01T06:35:13;-1.00;75.00
68215;DHT22;55036;52.138;5.236;2023-03-01T06:37:41;-1.00;75.00
68215;DHT22;55036;52.138;5.236;2023-03-01T06:40:09;-0.90;75.10
68215;DHT22;55036;52.138;5.236;2023-03-01T06:42:39;-1.00;74.80
68215;DHT22;55036;52.138;5.236;2023-03-01T06:45:07;-1.00;74.70
68215;DHT22;55036;52.138;5.236;2023-03-01T06:47:34;-1.00;74.70
68215;DHT22;55036;52.138;5.236;2023-03-01T06:50:02;-1.00;74.80
68215;DHT22;55036;52.138;5.236;2023-03-01T06:52:29;-0.90;74.80
68215;DHT22;55036;52.138;5.236;2023-03-01T06:54:56;-1.00;74.90
68215;DHT22;55036;52.138;5.236;2023-03-01T06:57:22;-0.90;75.20
68215;DHT22;55036;52.138;5.236;2023-03-01T06:59:49;-0.90;75.30
68215;DHT22;55036;52.138;5.236;2023-03-01T07:02:16;-0.80;75.60
68215;DHT22;55036;52.138;5.236;2023-03-01T07:04:43;-0.80;75.70
68215;DHT22;55036;52.138;5.236;2023-03-01T07:07:10;-0.80;75.40
68215;DHT22;55036;52.138;5.236;2023-03-01T07:09:36;-0.80;75.20
68215;DHT22;55036;52.138;5.236;2023-03-01T07:12:03;-0.80;75.10
68215;DHT22;55036;52.138;5.236;2023-03-01T07:14:30;-0.70;75.10
68215;DHT22;55036;52.138;5.236;2023-03-01T07:16:57;-0.70;75.20
68215;DHT22;55036;52.138;5.236;2023-03-01T07:19:24;-0.70;75.40
68215;DHT22;55036;52.138;5.236;2023-03-01T07:21:50;-0.60;75.40
68215;DHT22;55036;52.138;5.236;2023-03-01T07:24:17;-0.60;75.50
68215;DHT22;55036;52.138;5.236;2023-03-01T07:26:44;-0.50;75.70
68215;DHT22;55036;52.138;5.236;2023-03-01T07:29:10;-0.50;75.40
68215;DHT22;55036;52.138;5.236;2023-03-01T07:31:37;-0.40;75.40
68215;DHT22;55036;52.138;5.236;2023-03-01T07:34:04;-0.40;75.80
68215;DHT22;55036;52.138;5.236;2023-03-01T07:36:31;-0.30;75.80
68215;DHT22;55036;52.138;5.236;2023-03-01T07:38:58;-0.30;75.60
68215;DHT22;55036;52.138;5.236;2023-03-01T07:41:25;-0.20;76.50
68215;DHT22;55036;52.138;5.236;2023-03-01T07:43:51;-0.20;75.60
68215;DHT22;55036;52.138;5.236;2023-03-01T07:46:18;-0.10;75.80
68215;DHT22;55036;52.138;5.236;2023-03-01T07:48:45;0.00;76.10
68215;DHT22;55036;52.138;5.236;2023-03-01T07:51:12;0.10;76.30
68215;DHT22;55036;52.138;5.236;2023-03-01T07:53:39;0.20;76.70
68215;DHT22;55036;52.138;5.236;2023-03-01T07:56:11;0.40;77.10
68215;DHT22;55036;52.138;5.236;2023-03-01T07:58:40;0.40;77.30
68215;DHT22;55036;52.138;5.236;2023-03-01T08:01:09;0.50;77.50
68215;DHT22;55036;52.138;5.236;2023-03-01T08:03:36;0.70;77.90
68215;DHT22;55036;52.138;5.236;2023-03-01T08:06:06;0.90;78.20
68215;DHT22;55036;52.138;5.236;2023-03-01T08:08:34;1.10;78.40
68215;DHT22;55036;52.138;5.236;2023-03-01T08:11:03;1.30;78.50
68215;DHT22;55036;52.138;5.236;2023-03-01T08:13:31;1.40;78.60
68215;DHT22;55036;52.138;5.236;2023-03-01T08:16:05;1.70;78.80
68215;DHT22;55036;52.138;5.236;2023-03-01T08:18:33;1.90;78.90
68215;DHT22;55036;52.138;5.236;2023-03-01T08:21:04;2.10;78.50
68215;DHT22;55036;52.138;5.236;2023-03-01T08:23:31;2.30;77.70
68215;DHT22;55036;52.138;5.236;2023-03-01T08:26:06;2.40;77.90
68215;DHT22;55036;52.138;5.236;2023-03-01T08:28:33;2.30;77.10
68215;DHT22;55036;52.138;5.236;2023-03-01T08:31:00;2.40;77.30
68215;DHT22;55036;52.138;5.236;2023-03-01T08:33:27;2.50;77.10
68215;DHT22;55036;52.138;5.236;2023-03-01T08:36:03;2.60;76.80
68215;DHT22;55036;52.138;5.236;2023-03-01T08:38:30;2.70;76.40
68215;DHT22;55036;52.138;5.236;2023-03-01T08:40:59;2.80;76.20
68215;DHT22;55036;52.138;5.236;2023-03-01T08:43:26;2.90;76.30
68215;DHT22;55036;52.138;5.236;2023-03-01T08:45:53;3.00;76.00
68215;DHT22;55036;52.138;5.236;2023-03-01T08:48:19;3.20;75.90
68215;DHT22;55036;52.138;5.236;2023-03-01T08:50:46;3.30;75.00
68215;DHT22;55036;52.138;5.236;2023-03-01T08:53:13;3.40;74.60
68215;DHT22;55036;52.138;5.236;2023-03-01T08:55:39;3.40;72.30
68215;DHT22;55036;52.138;5.236;2023-03-01T08:58:06;3.60;72.90
68215;DHT22;55036;52.138;5.236;2023-03-01T09:00:33;3.70;72.40
68215;DHT22;55036;52.138;5.236;2023-03-01T09:03:01;4.00;71.80
68215;DHT22;55036;52.138;5.236;2023-03-01T09:05:34;4.10;70.90
68215;DHT22;55036;52.138;5.236;2023-03-01T09:08:00;4.20;73.00
68215;DHT22;55036;52.138;5.236;2023-03-01T09:10:27;4.50;70.80
68215;DHT22;55036;52.138;5.236;2023-03-01T09:12:54;4.60;68.00
68215;DHT22;55036;52.138;5.236;2023-03-01T09:15:21;4.70;68.40
68215;DHT22;55036;52.138;5.236;2023-03-01T09:17:48;4.70;66.00
68215;DHT22;55036;52.138;5.236;2023-03-01T09:20:14;4.60;65.40
68215;DHT22;55036;52.138;5.236;2023-03-01T09:22:41;4.70;66.20
68215;DHT22;55036;52.138;5.236;2023-03-01T09:25:08;4.80;67.10
68215;DHT22;55036;52.138;5.236;2023-03-01T09:27:35;5.10;65.90
68215;DHT22;55036;52.138;5.236;2023-03-01T09:30:03;5.20;64.50
68215;DHT22;55036;52.138;5.236;2023-03-01T09:32:31;5.20;65.40
68215;DHT22;55036;52.138;5.236;2023-03-01T09:34:58;5.50;64.80
68215;DHT22;55036;52.138;5.236;2023-03-01T09:37:31;5.60;63.20
68215;DHT22;55036;52.138;5.236;2023-03-01T09:39:58;5.70;63.90
68215;DHT22;55036;52.138;5.236;2023-03-01T09:42:26;6.00;64.80
68215;DHT22;55036;52.138;5.236;2023-03-01T09:45:00;6.30;60.00
68215;DHT22;55036;52.138;5.236;2023-03-01T09:47:30;6.10;61.40
68215;DHT22;55036;52.138;5.236;2023-03-01T09:50:16;6.10;60.60
68215;DHT22;55036;52.138;5.236;2023-03-01T09:53:04;6.30;61.40
68215;DHT22;55036;52.138;5.236;2023-03-01T09:55:48;6.50;60.10
68215;DHT22;55036;52.138;5.236;2023-03-01T09:58:46;6.70;57.50
68215;DHT22;55036;52.138;5.236;2023-03-01T10:06:32;6.80;59.80
68215;DHT22;55036;52.138;5.236;2023-03-01T10:09:16;7.00;56.70
68215;DHT22;55036;52.138;5.236;2023-03-01T10:11:52;7.10;58.70
68215;DHT22;55036;52.138;5.236;2023-03-01T10:14:36;7.30;54.70
68215;DHT22;55036;52.138;5.236;2023-03-01T10:17:06;7.10;55.30
68215;DHT22;55036;52.138;5.236;2023-03-01T10:19:42;7.10;56.40
68215;DHT22;55036;52.138;5.236;2023-03-01T10:22:21;7.20;55.70
68215;DHT22;55036;52.138;5.236;2023-03-01T10:24:50;7.30;58.80
68215;DHT22;55036;52.138;5.236;2023-03-01T10:30:06;7.70;55.80
68215;DHT22;55036;52.138;5.236;2023-03-01T10:32:37;7.60;56.20
68215;DHT22;55036;52.138;5.236;2023-03-01T10:35:27;7.80;56.90
68215;DHT22;55036;52.138;5.236;2023-03-01T10:38:12;8.00;56.90
68215;DHT22;55036;52.138;5.236;2023-03-01T10:40:57;8.20;55.00
68215;DHT22;55036;52.138;5.236;2023-03-01T10:46:31;7.90;52.30
68215;DHT22;55036;52.138;5.236;2023-03-01T10:49:19;7.90;53.00
68215;DHT22;55036;52.138;5.236;2023-03-01T10:51:51;7.80;52.50
68215;DHT22;55036;52.138;5.236;2023-03-01T10:54:29;8.00;54.40
68215;DHT22;55036;52.138;5.236;2023-03-01T10:57:04;8.20;52.80
68215;DHT22;55036;52.138;5.236;2023-03-01T10:59:35;8.20;51.60
68215;DHT22;55036;52.138;5.236;2023-03-01T11:02:21;8.30;53.20
68215;DHT22;55036;52.138;5.236;2023-03-01T11:05:18;8.30;52.00
68215;DHT22;55036;52.138;5.236;2023-03-01T11:07:55;8.40;51.90
68215;DHT22;55036;52.138;5.236;2023-03-01T11:10:34;8.40;50.40
68215;DHT22;55036;52.138;5.236;2023-03-01T11:15:35;8.50;50.90
68215;DHT22;55036;52.138;5.236;2023-03-01T11:18:02;8.50;51.20
68215;DHT22;55036;52.138;5.236;2023-03-01T11:20:39;8.50;49.50
68215;DHT22;55036;52.138;5.236;2023-03-01T11:23:11;8.50;49.00
68215;DHT22;55036;52.138;5.236;2023-03-01T11:25:54;8.60;48.90
68215;DHT22;55036;52.138;5.236;2023-03-01T11:28:22;8.70;45.70
68215;DHT22;55036;52.138;5.236;2023-03-01T11:30:59;8.50;48.10
68215;DHT22;55036;52.138;5.236;2023-03-01T11:33:37;8.60;49.10
68215;DHT22;55036;52.138;5.236;2023-03-01T11:38:42;8.60;45.10
68215;DHT22;55036;52.138;5.236;2023-03-01T11:41:14;8.30;44.30
68215;DHT22;55036;52.138;5.236;2023-03-01T11:43:47;8.20;46.30
68215;DHT22;55036;52.138;5.236;2023-03-01T12:03:38;8.60;44.90
68215;DHT22;55036;52.138;5.236;2023-03-01T12:06:26;8.60;44.20
68215;DHT22;55036;52.138;5.236;2023-03-01T12:09:20;8.70;42.40
68215;DHT22;55036;52.138;5.236;2023-03-01T12:14:39;8.70;45.10
68215;DHT22;55036;52.138;5.236;2023-03-01T12:20:21;8.80;44.10
68215;DHT22;55036;52.138;5.236;2023-03-01T12:22:58;9.00;42.70
68215;DHT22;55036;52.138;5.236;2023-03-01T12:29:01;8.90;44.00
68215;DHT22;55036;52.138;5.236;2023-03-01T12:34:35;8.90;41.10
68215;DHT22;55036;52.138;5.236;2023-03-01T12:40:01;8.90;44.00
68215;DHT22;55036;52.138;5.236;2023-03-01T12:43:04;9.00;43.00
68215;DHT22;55036;52.138;5.236;2023-03-01T12:46:01;9.10;42.40
68215;DHT22;55036;52.138;5.236;2023-03-01T12:51:30;9.10;41.20
68215;DHT22;55036;52.138;5.236;2023-03-01T12:53:59;9.10;40.80
68215;DHT22;55036;52.138;5.236;2023-03-01T12:56:35;9.20;43.10
68215;DHT22;55036;52.138;5.236;2023-03-01T12:59:08;9.30;40.40
68215;DHT22;55036;52.138;5.236;2023-03-01T13:07:09;9.30;41.90
68215;DHT22;55036;52.138;5.236;2023-03-01T13:09:59;9.10;40.20
68215;DHT22;55036;52.138;5.236;2023-03-01T13:12:50;9.20;41.00
68215;DHT22;55036;52.138;5.236;2023-03-01T13:17:59;9.00;42.50
68215;DHT22;55036;52.138;5.236;2023-03-01T13:20:46;9.20;41.60
68215;DHT22;55036;52.138;5.236;2023-03-01T13:26:16;9.40;41.60
68215;DHT22;55036;52.138;5.236;2023-03-01T13:33:52;9.60;40.90
68215;DHT22;55036;52.138;5.236;2023-03-01T13:38:57;9.60;39.30
68215;DHT22;55036;52.138;5.236;2023-03-01T13:46:56;9.60;38.60
68215;DHT22;55036;52.138;5.236;2023-03-01T13:49:28;9.50;39.90
68215;DHT22;55036;52.138;5.236;2023-03-01T13:57:43;9.40;40.70
68215;DHT22;55036;52.138;5.236;2023-03-01T14:00:40;9.50;41.30
68215;DHT22;55036;52.138;5.236;2023-03-01T14:03:11;9.40;40.10
68215;DHT22;55036;52.138;5.236;2023-03-01T14:05:39;9.50;40.00
68215;DHT22;55036;52.138;5.236;2023-03-01T14:08:19;9.40;39.20
68215;DHT22;55036;52.138;5.236;2023-03-01T14:21:37;9.40;39.70
68215;DHT22;55036;52.138;5.236;2023-03-01T14:24:04;9.50;39.00
68215;DHT22;55036;52.138;5.236;2023-03-01T14:26:32;9.20;39.30
68215;DHT22;55036;52.138;5.236;2023-03-01T14:29:00;9.10;39.80
68215;DHT22;55036;52.138;5.236;2023-03-01T14:31:34;9.20;39.20
68215;DHT22;55036;52.138;5.236;2023-03-01T14:34:23;9.10;39.70
68215;DHT22;55036;52.138;5.236;2023-03-01T14:36:50;9.10;38.90
68215;DHT22;55036;52.138;5.236;2023-03-01T14:39:19;8.90;39.40
68215;DHT22;55036;52.138;5.236;2023-03-01T14:41:46;8.90;39.00
68215;DHT22;55036;52.138;5.236;2023-03-01T14:44:21;8.70;39.40
68215;DHT22;55036;52.138;5.236;2023-03-01T14:46:53;8.80;38.70
68215;DHT22;55036;52.138;5.236;2023-03-01T14:49:24;8.90;39.60
68215;DHT22;55036;52.138;5.236;2023-03-01T14:54:29;8.80;39.30
68215;DHT22;55036;52.138;5.236;2023-03-01T14:57:01;8.70;39.30
68215;DHT22;55036;52.138;5.236;2023-03-01T14:59:28;8.70;39.40
68215;DHT22;55036;52.138;5.236;2023-03-01T15:01:57;8.70;39.20
68215;DHT22;55036;52.138;5.236;2023-03-01T15:04:26;8.60;40.10
68215;DHT22;55036;52.138;5.236;2023-03-01T15:06:55;8.70;40.30
68215;DHT22;55036;52.138;5.236;2023-03-01T15:09:22;8.80;40.00
68215;DHT22;55036;52.138;5.236;2023-03-01T15:11:49;8.80;39.40
68215;DHT22;55036;52.138;5.236;2023-03-01T15:14:42;8.60;39.50
68215;DHT22;55036;52.138;5.236;2023-03-01T15:17:31;8.60;40.00
68215;DHT22;55036;52.138;5.236;2023-03-01T15:20:00;8.50;40.40
68215;DHT22;55036;52.138;5.236;2023-03-01T15:22:27;8.50;40.60
68215;DHT22;55036;52.138;5.236;2023-03-01T15:24:54;8.40;40.40
68215;DHT22;55036;52.138;5.236;2023-03-01T15:27:23;8.50;40.80
68215;DHT22;55036;52.138;5.236;2023-03-01T15:30:00;8.50;40.40
68215;DHT22;55036;52.138;5.236;2023-03-01T15:32:33;8.60;39.90
68215;DHT22;55036;52.138;5.236;2023-03-01T15:35:32;8.60;39.90
68215;DHT22;55036;52.138;5.236;2023-03-01T15:37:49;8.60;39.30
68215;DHT22;55036;52.138;5.236;2023-03-01T15:40:25;8.60;39.90
68215;DHT22;55036;52.138;5.236;2023-03-01T15:43:02;8.50;40.20
68215;DHT22;55036;52.138;5.236;2023-03-01T15:45:30;8.50;40.50
68215;DHT22;55036;52.138;5.236;2023-03-01T15:48:00;8.50;40.70
68215;DHT22;55036;52.138;5.236;2023-03-01T15:50:32;8.50;40.90
68215;DHT22;55036;52.138;5.236;2023-03-01T15:53:01;8.60;40.60
68215;DHT22;55036;52.138;5.236;2023-03-01T15:55:31;8.50;41.00
68215;DHT22;55036;52.138;5.236;2023-03-01T15:58:21;8.40;40.80
68215;DHT22;55036;52.138;5.236;2023-03-01T16:00:49;8.40;40.80
68215;DHT22;55036;52.138;5.236;2023-03-01T16:03:27;8.40;40.80
68215;DHT22;55036;52.138;5.236;2023-03-01T16:05:53;8.50;41.20
68215;DHT22;55036;52.138;5.236;2023-03-01T16:08:20;8.40;41.30
68215;DHT22;55036;52.138;5.236;2023-03-01T16:10:47;8.30;41.30
68215;DHT22;55036;52.138;5.236;2023-03-01T16:13:16;8.10;41.50
68215;DHT22;55036;52.138;5.236;2023-03-01T16:15:43;8.10;41.80
68215;DHT22;55036;52.138;5.236;2023-03-01T16:18:10;8.10;41.90
68215;DHT22;55036;52.138;5.236;2023-03-01T16:20:38;8.00;42.50
68215;DHT22;55036;52.138;5.236;2023-03-01T16:23:07;8.00;42.40
68215;DHT22;55036;52.138;5.236;2023-03-01T16:25:35;8.10;42.30
68215;DHT22;55036;52.138;5.236;2023-03-01T16:28:02;8.20;42.00
68215;DHT22;55036;52.138;5.236;2023-03-01T16:30:39;8.00;42.50
68215;DHT22;55036;52.138;5.236;2023-03-01T16:33:06;8.10;42.10
68215;DHT22;55036;52.138;5.236;2023-03-01T16:35:51;8.00;42.30
68215;DHT22;55036;52.138;5.236;2023-03-01T16:38:18;8.00;42.20
68215;DHT22;55036;52.138;5.236;2023-03-01T16:40:50;8.00;42.40
68215;DHT22;55036;52.138;5.236;2023-03-01T16:43:17;8.00;42.60
68215;DHT22;55036;52.138;5.236;2023-03-01T16:45:43;7.80;43.00
68215;DHT22;55036;52.138;5.236;2023-03-01T16:48:12;7.80;44.50
68215;DHT22;55036;52.138;5.236;2023-03-01T16:50:39;7.70;43.40
68215;DHT22;55036;52.138;5.236;2023-03-01T16:53:06;7.60;43.40
68215;DHT22;55036;52.138;5.236;2023-03-01T16:55:33;7.60;44.00
68215;DHT22;55036;52.138;5.236;2023-03-01T16:58:00;7.60;43.90
68215;DHT22;55036;52.138;5.236;2023-03-01T17:00:27;7.60;43.90
68215;DHT22;55036;52.138;5.236;2023-03-01T17:02:54;7.50;43.90
68215;DHT22;55036;52.138;5.236;2023-03-01T17:05:21;7.60;44.60
68215;DHT22;55036;52.138;5.236;2023-03-01T17:07:50;7.50;45.00
68215;DHT22;55036;52.138;5.236;2023-03-01T17:10:17;7.40;46.20
68215;DHT22;55036;52.138;5.236;2023-03-01T17:12:44;7.40;46.30
68215;DHT22;55036;52.138;5.236;2023-03-01T17:15:11;7.30;46.70
68215;DHT22;55036;52.138;5.236;2023-03-01T17:17:38;7.20;47.50
68215;DHT22;55036;52.138;5.236;2023-03-01T17:20:05;7.10;47.70
68215;DHT22;55036;52.138;5.236;2023-03-01T17:22:32;6.90;47.50
68215;DHT22;55036;52.138;5.236;2023-03-01T17:24:58;6.80;47.50
68215;DHT22;55036;52.138;5.236;2023-03-01T17:27:26;6.70;47.50
68215;DHT22;55036;52.138;5.236;2023-03-01T17:29:53;6.70;47.30
68215;DHT22;55036;52.138;5.236;2023-03-01T17:32:19;6.70;47.10
68215;DHT22;55036;52.138;5.236;2023-03-01T17:34:46;6.70;46.80
68215;DHT22;55036;52.138;5.236;2023-03-01T17:37:13;6.60;47.40
68215;DHT22;55036;52.138;5.236;2023-03-01T17:39:40;6.60;47.30
68215;DHT22;55036;52.138;5.236;2023-03-01T17:42:06;6.50;47.80
68215;DHT22;55036;52.138;5.236;2023-03-01T17:44:33;6.40;47.70
68215;DHT22;55036;52.138;5.236;2023-03-01T17:47:01;6.40;47.90
68215;DHT22;55036;52.138;5.236;2023-03-01T17:49:29;6.30;48.40
68215;DHT22;55036;52.138;5.236;2023-03-01T17:51:55;6.20;48.70